Bilbao, Spain
Current Conditions -  °F | °C
As of 6:30 PM on Thursday 30 Oct 2014 (Local Time) from LEBB Reporting Station
Clear Clear  
Wind Chill: 75°   Ceiling: Unl
Heat Index: 75°   Visibility: 6mi
Dew Point: 57°   Wind: 6mph
Humidity: 53%   Direction: 120°ESE
Pressure: 30.09"   Gusts: NA
Location:  43.26°N, 2.92°W
Report Text: LEBB 301730Z 12005KT CAVOK 24/14 Q1019 NOSIG
Loading
Personal Weather Stations






























Interactive Weather Map New forecast layout! Learn more

10-Day Weather Forecast

Advertisements
Track Severe Weather on mobile